Résultats

Montée Nesque - SOLO. Édition 2022.

19.8 Km
04/09/2022 à 09:30:00 - Villes sur Auzon (84)
56 arrivant(e)s.


 
Les autres classements de cet évènement




Place▲ Temps Dossard Nom Prenom Categ #Categ Sexe #Sexe ClubVit Moy Diplôme Partager
1 00:31:58 138 ALAZARD REMI 29M 1 M 1 AVC AIX EN PROVENCE37.16
2 00:32:11 159 BELVEGUE SYDNEY 29M 2 M 2 36.91
3 00:32:46 118 GUERIN MARIUS 29M 3 M 3 CHARVIEUX-CHAVAGNEUX-ISERE-CYCLISME36.26
4 00:32:58 111 LEBRAULT VICTOR JUM 1 M 4 MIMOSA SPRINT MANDELIEU36.04
5 00:33:10 109 TAMET ANTOINE NL 1 M 5 35.82
6 00:33:43 129 PECQUENARD-DROITON JULES JUM 2 M 6 CAVIGAL NICE SPORTS35.23
7 00:33:51 103 DESJARDINS JULIEN 49M 1 M 7 TEAM VELOPROSHOP BY MAXPERF/GARDANNE VELO35.10
8 00:34:40 121 GILLES NOAH JUM 3 M 8 VCTG LE THOR GADAGNE34.27
9 00:34:50 113 ENJALBERT PAUL 49M 2 M 9 CVC MONTFAVET34.11
10 00:34:52 145 MOUCHARD GAETAN 49M 3 M 10 VELO CLUB DE MARSEILLE34.07
11 00:35:50 148 LAIGLE BENJAMIN 49M 4 M 11 TEAM ATC26-DONZERE33.15
12 00:36:22 146 AGUD THIERRY 60M 1 M 12 CCGIERES32.67
13 00:36:33 114 DERRIEN STEPHANE 49M 5 M 13 UC PIERRELATTE32.50
14 00:36:37 115 BOYER JOHAN 49M 6 M 14 TEAM MADEWISS PERNES32.44
15 00:36:48 131 RICARD LUCAS CAM 1 M 15 AIX VTT32.28
16 00:36:56 132 CRESTIAN CYRIL 49M 7 M 16 AIX VTT32.17
17 00:37:12 135 LAURENT REGIS 59M 1 M 17 CYCLO SPORT CAVAILLON31.94
18 00:37:47 110 HOUYVET TIMEO CAM 2 M 18 VELOROC CAVAILLON31.44
19 00:37:55 120 QUEAU MAEL CAM 3 M 19 ACORANGE TRI31.33
20 00:38:08 150 BLASQUEZ NICOLA 49M 8 M 20 VC PIERRELATTE31.15
21 00:38:15 128 GOMEZ GILBERT 60M 2 M 21 VCLES3C31.06
22 00:38:23 164 MICHEL JEAN-CLAUDE 60M 3 M 22 VC MIRAMAS30.95
23 00:39:20 134 REINERT DELPHINE FEM 1 F 1 VC ISLOIS-TEAM STAMINA30.20
24 00:39:28 122 DELEBECQUE LILIAN CAM 4 M 23 30.10
25 00:39:29 157 BREA-GONZALEZ GREGORY 49M 9 M 24 SJVC MONTELIMAR30.09
26 00:39:34 104 BIVILLE PATRICE NL 2 M 25 30.03
27 00:39:38 147 HERTAULT AGNES FEM 2 F 2 CCGIERES29.97
28 00:39:48 154 SOUBEYRAS CEDRIC NL 3 M 26 29.85
29 00:39:50 101 CORDES SYLVIE FEM 3 F 3 CSCAVAILLON29.82
30 00:39:53 140 FOUILLEUL LUDOVIC 49M 10 M 27 VTCC/CSSV29.79
31 00:40:03 143 DE-FAYARD SYLVESTER 49M 11 M 28 UZES VELO CLUB29.66
32 00:40:23 160 CHAUVIN MICHEL 60M 4 M 29 29.42
33 00:40:50 124 PONCET STEPHANE 49M 12 M 30 VELOROC CAVAILLON29.09
34 00:41:02 125 PONCET LAURA JUF 1 F 4 VELOROC CAVAILLON28.95
35 00:41:29 112 VERDIER SEBASTIEN 49M 13 M 31 UNION CYCLISTE PIERRELATTE/UC PIERRELATTE28.64
36 00:41:38 155 MAUPETIT ANTHONY NL 4 M 32 28.53
37 00:41:43 161 MOGGIA MICHE 60M 5 M 33 28.48
38 00:42:00 123 COMTE SYLVAIN 49M 14 M 34 UNION SPORTIVE CYCLISTE VAISON LA ROMAINE28.29
39 00:42:20 107 CELERIER FRANCK 60M 6 M 35 UC PIERRELATTE28.06
40 00:42:22 158 COMETTO BERNARD 60M 7 M 36 CC CLAVEM28.04
41 00:42:39 130 GEMMET LISA FEM 4 F 5 27.85
42 00:42:47 119 MALIE JULIE FEM 5 F 6 ACME27.77
43 00:42:55 106 CHARRIER KYLIAN CAM 5 M 37 VCTG LE THOR GADAGNE27.68
44 00:43:00 153 BERTHOME ROMAIN NL 5 M 38 UAC CARPENTRAS27.63
45 00:43:14 116 CHAMBOREDON CLAUDIE FEM 6 F 7 VELO CLUB ISLOIS TEAM STAMINA27.48
46 00:44:13 126 DUBOULAY MIKE CAM 6 M 39 VELOROC CAVAILLON26.87
47 00:44:14 102 COLLAS JORIS 29M 4 M 40 VELO CLUB ISLOIS26.86
48 00:44:36 162 CAPRIOLI MAXIME CAM 7 M 41 26.64
49 00:45:40 156 POLIAS ENZO NL 6 M 42 26.01
50 00:45:53 137 KUCHARSKI CHARLENE FEM 7 F 8 VC ISLOIS-TEAM STAMINA25.89
51 00:45:57 152 LUBERRIAGA CHARLOTTE JUF 2 F 9 ROUE D OR BRIGNOLES25.85
52 00:46:24 149 CHOQUET JEAN-MICHEL 59M 2 M 43 VELO CLUB L ISLOIS25.60
53 00:46:48 163 RUIZ THIERRY 59M 3 M 44 MONTFAVET25.38
54 00:47:11 127 PETIT-PRETRE CHLOE JUF 3 F 10 VELO CLUB ISLOIS25.18
55 00:59:07 108 GOMEZ SOPHIE FEM 8 F 11 20.10
56 01:04:17 136 GARNON ORIANE FEM 9 F 12 VSH18.48